sensor_id;sensor_type;location;lat;lon;timestamp;pressure;altitude;pressure_sealevel;temperature;humidity
36354;BME280;22383;51.114;13.666;2023-01-01T00:01:23;68836.03;;;14.92;100.00
36354;BME280;22383;51.114;13.666;2023-01-01T00:03:52;68838.69;;;14.92;100.00
36354;BME280;22383;51.114;13.666;2023-01-01T00:06:21;68841.72;;;14.97;100.00
36354;BME280;22383;51.114;13.666;2023-01-01T00:08:48;68844.94;;;14.98;100.00
36354;BME280;22383;51.114;13.666;2023-01-01T00:11:34;68842.28;;;14.98;100.00
36354;BME280;22383;51.114;13.666;2023-01-01T00:14:01;68836.03;;;14.92;100.00
36354;BME280;22383;51.114;13.666;2023-01-01T00:16:38;68832.78;;;14.91;100.00
36354;BME280;22383;51.114;13.666;2023-01-01T00:19:11;68831.69;;;14.83;100.00
36354;BME280;22383;51.114;13.666;2023-01-01T00:21:38;68801.25;;;14.82;100.00
36354;BME280;22383;51.114;13.666;2023-01-01T00:24:06;68836.22;;;14.94;100.00
36354;BME280;22383;51.114;13.666;2023-01-01T00:26:33;68841.72;;;14.97;100.00
36354;BME280;22383;51.114;13.666;2023-01-01T00:29:02;68839.25;;;14.92;100.00
36354;BME280;22383;51.114;13.666;2023-01-01T00:31:37;68840.94;;;15.01;100.00
36354;BME280;22383;51.114;13.666;2023-01-01T00:34:04;68855.94;;;15.10;100.00
36354;BME280;22383;51.114;13.666;2023-01-01T00:36:32;68848.53;;;15.03;100.00
36354;BME280;22383;51.114;13.666;2023-01-01T00:39:00;68845.72;;;15.01;100.00
36354;BME280;22383;51.114;13.666;2023-01-01T00:41:28;68842.09;;;14.95;100.00
36354;BME280;22383;51.114;13.666;2023-01-01T00:43:55;68839.63;;;14.98;100.00
36354;BME280;22383;51.114;13.666;2023-01-01T00:46:28;68834.72;;;14.88;100.00
36354;BME280;22383;51.114;13.666;2023-01-01T00:48:58;68837.72;;;14.93;100.00
36354;BME280;22383;51.114;13.666;2023-01-01T00:51:25;68840.22;;;14.91;100.00
36354;BME280;22383;51.114;13.666;2023-01-01T00:53:58;68833.56;;;14.87;100.00
36354;BME280;22383;51.114;13.666;2023-01-01T00:56:28;68817.25;;;14.75;100.00
36354;BME280;22383;51.114;13.666;2023-01-01T00:58:55;68823.72;;;14.76;100.00
36354;BME280;22383;51.114;13.666;2023-01-01T01:01:27;68836.41;;;14.90;100.00
36354;BME280;22383;51.114;13.666;2023-01-01T01:03:55;68832.06;;;14.88;100.00
36354;BME280;22383;51.114;13.666;2023-01-01T01:06:22;68826.75;;;14.81;100.00
36354;BME280;22383;51.114;13.666;2023-01-01T01:08:50;68819.72;;;14.80;100.00
36354;BME280;22383;51.114;13.666;2023-01-01T01:11:23;68831.69;;;14.83;100.00
36354;BME280;22383;51.114;13.666;2023-01-01T01:13:52;68818.22;;;14.73;100.00
36354;BME280;22383;51.114;13.666;2023-01-01T01:16:30;68804.19;;;14.63;100.00
36354;BME280;22383;51.114;13.666;2023-01-01T01:19:07;68804.75;;;14.64;100.00
36354;BME280;22383;51.114;13.666;2023-01-01T01:21:40;68806.28;;;14.63;100.00
36354;BME280;22383;51.114;13.666;2023-01-01T01:24:08;68809.47;;;14.70;100.00
36354;BME280;22383;51.114;13.666;2023-01-01T01:26:36;68816.50;;;14.72;100.00
36354;BME280;22383;51.114;13.666;2023-01-01T01:29:09;68808.75;;;14.67;100.00
36354;BME280;22383;51.114;13.666;2023-01-01T01:31:41;68817.06;;;14.72;100.00
36354;BME280;22383;51.114;13.666;2023-01-01T01:34:08;68807.97;;;14.64;100.00
36354;BME280;22383;51.114;13.666;2023-01-01T01:36:42;68796.41;;;14.59;100.00
36354;BME280;22383;51.114;13.666;2023-01-01T01:39:10;68793.00;;;14.48;100.00
36354;BME280;22383;51.114;13.666;2023-01-01T01:41:38;68785.41;;;14.46;100.00
36354;BME280;22383;51.114;13.666;2023-01-01T01:50:16;68767.97;;;14.26;100.00
36354;BME280;22383;51.114;13.666;2023-01-01T01:53:06;68754.34;;;14.13;100.00
36354;BME280;22383;51.114;13.666;2023-01-01T01:55:38;68728.38;;;13.92;100.00
36354;BME280;22383;51.114;13.666;2023-01-01T01:58:10;68746.19;;;14.04;100.00
36354;BME280;22383;51.114;13.666;2023-01-01T02:00:39;68736.50;;;14.02;100.00
36354;BME280;22383;51.114;13.666;2023-01-01T02:03:09;68726.84;;;13.93;100.00
36354;BME280;22383;51.114;13.666;2023-01-01T02:05:39;68716.59;;;13.84;100.00
36354;BME280;22383;51.114;13.666;2023-01-01T02:08:07;68709.81;;;13.78;100.00
36354;BME280;22383;51.114;13.666;2023-01-01T02:10:35;68712.25;;;13.75;100.00
36354;BME280;22383;51.114;13.666;2023-01-01T02:13:03;68709.03;;;13.75;100.00
36354;BME280;22383;51.114;13.666;2023-01-01T02:15:34;68709.22;;;13.77;100.00
36354;BME280;22383;51.114;13.666;2023-01-01T02:18:11;68705.81;;;13.74;100.00
36354;BME280;22383;51.114;13.666;2023-01-01T02:26:21;68694.44;;;13.64;100.00
36354;BME280;22383;51.114;13.666;2023-01-01T02:31:38;68675.69;;;13.47;100.00
36354;BME280;22383;51.114;13.666;2023-01-01T02:34:09;68688.56;;;13.56;100.00
36354;BME280;22383;51.114;13.666;2023-01-01T02:36:43;68703.00;;;13.65;100.00
36354;BME280;22383;51.114;13.666;2023-01-01T02:39:12;68704.69;;;13.73;100.00
36354;BME280;22383;51.114;13.666;2023-01-01T02:41:44;68691.44;;;13.59;100.00
36354;BME280;22383;51.114;13.666;2023-01-01T02:44:13;68687.63;;;13.58;100.00
36354;BME280;22383;51.114;13.666;2023-01-01T02:46:41;68678.53;;;13.50;100.00
36354;BME280;22383;51.114;13.666;2023-01-01T02:49:09;68700.91;;;13.65;100.00
36354;BME280;22383;51.114;13.666;2023-01-01T03:02:13;68691.78;;;13.64;100.00
36354;BME280;22383;51.114;13.666;2023-01-01T03:04:49;68695.78;;;13.60;100.00
36354;BME280;22383;51.114;13.666;2023-01-01T03:07:28;68688.41;;;13.54;100.00
36354;BME280;22383;51.114;13.666;2023-01-01T03:10:12;68673.22;;;13.42;100.00
36354;BME280;22383;51.114;13.666;2023-01-01T03:12:55;68674.19;;;13.41;100.00
36354;BME280;22383;51.114;13.666;2023-01-01T03:15:30;68679.31;;;13.46;100.00
36354;BME280;22383;51.114;13.666;2023-01-01T03:18:11;68675.69;;;13.47;100.00
36354;BME280;22383;51.114;13.666;2023-01-01T03:20:44;68656.91;;;13.30;100.00
36354;BME280;22383;51.114;13.666;2023-01-01T03:23:17;68665.88;;;13.36;100.00
36354;BME280;22383;51.114;13.666;2023-01-01T03:25:52;68657.50;;;13.31;100.00
36354;BME280;22383;51.114;13.666;2023-01-01T03:28:24;68634.22;;;13.10;100.00
36354;BME280;22383;51.114;13.666;2023-01-01T03:30:53;68635.53;;;13.06;100.00
36354;BME280;22383;51.114;13.666;2023-01-01T03:33:28;68650.50;;;13.22;100.00
36354;BME280;22383;51.114;13.666;2023-01-01T03:35:59;68635.91;;;13.11;100.00
36354;BME280;22383;51.114;13.666;2023-01-01T03:38:35;68625.50;;;12.99;100.00
36354;BME280;22383;51.114;13.666;2023-01-01T03:46:32;68599.56;;;12.78;100.00
36354;BME280;22383;51.114;13.666;2023-01-01T03:49:03;68587.63;;;12.67;100.00
36354;BME280;22383;51.114;13.666;2023-01-01T03:51:37;68598.81;;;12.75;100.00
36354;BME280;22383;51.114;13.666;2023-01-01T03:59:51;68635.91;;;13.11;100.00
36354;BME280;22383;51.114;13.666;2023-01-01T04:02:20;68626.63;;;13.00;100.00
36354;BME280;22383;51.114;13.666;2023-01-01T04:04:51;68614.13;;;12.89;100.00
36354;BME280;22383;51.114;13.666;2023-01-01T04:07:19;68607.91;;;12.83;100.00
36354;BME280;22383;51.114;13.666;2023-01-01T04:09:49;68596.72;;;12.76;100.00
36354;BME280;22383;51.114;13.666;2023-01-01T04:12:17;68590.28;;;12.67;100.00
36354;BME280;22383;51.114;13.666;2023-01-01T04:14:44;68595.78;;;12.70;100.00
36354;BME280;22383;51.114;13.666;2023-01-01T04:17:12;68587.81;;;12.70;100.00
36354;BME280;22383;51.114;13.666;2023-01-01T04:19:44;68600.91;;;12.75;100.00
36354;BME280;22383;51.114;13.666;2023-01-01T04:22:20;68609.59;;;12.85;100.00
36354;BME280;22383;51.114;13.666;2023-01-01T04:24:57;68591.97;;;12.69;100.00
36354;BME280;22383;51.114;13.666;2023-01-01T04:27:24;68607.31;;;12.83;100.00
36354;BME280;22383;51.114;13.666;2023-01-01T04:29:51;68586.09;;;12.68;100.00
36354;BME280;22383;51.114;13.666;2023-01-01T04:32:18;68595.38;;;12.72;100.00
36354;BME280;22383;51.114;13.666;2023-01-01T04:34:45;68582.53;;;12.63;100.00
36354;BME280;22383;51.114;13.666;2023-01-01T04:37:13;68578.56;;;12.59;100.00
36354;BME280;22383;51.114;13.666;2023-01-01T04:39:40;68585.19;;;12.63;100.00
36354;BME280;22383;51.114;13.666;2023-01-01T04:42:08;68584.97;;;12.60;100.00
36354;BME280;22383;51.114;13.666;2023-01-01T04:44:35;68590.09;;;12.65;100.00
36354;BME280;22383;51.114;13.666;2023-01-01T04:47:02;68589.34;;;12.62;100.00
36354;BME280;22383;51.114;13.666;2023-01-01T04:49:29;68582.91;;;12.61;100.00
36354;BME280;22383;51.114;13.666;2023-01-01T04:51:58;68591.41;;;12.68;100.00
36354;BME280;22383;51.114;13.666;2023-01-01T04:54:25;68595.94;;;12.73;100.00
36354;BME280;22383;51.114;13.666;2023-01-01T04:56:58;68597.09;;;12.74;100.00
36354;BME280;22383;51.114;13.666;2023-01-01T04:59:25;68601.06;;;12.77;100.00
36354;BME280;22383;51.114;13.666;2023-01-01T05:01:52;68585.34;;;12.65;100.00
36354;BME280;22383;51.114;13.666;2023-01-01T05:04:20;68588.00;;;12.65;100.00
36354;BME280;22383;51.114;13.666;2023-01-01T05:06:47;68578.56;;;12.59;100.00
36354;BME280;22383;51.114;13.666;2023-01-01T05:09:23;68585.94;;;12.66;100.00
36354;BME280;22383;51.114;13.666;2023-01-01T05:11:52;68584.97;;;12.60;100.00
36354;BME280;22383;51.114;13.666;2023-01-01T05:14:25;68577.78;;;12.56;100.00
36354;BME280;22383;51.114;13.666;2023-01-01T05:16:52;68570.59;;;12.52;100.00
36354;BME280;22383;51.114;13.666;2023-01-01T05:19:20;68582.31;;;12.60;100.00
36354;BME280;22383;51.114;13.666;2023-01-01T05:21:47;68576.09;;;12.55;100.00
36354;BME280;22383;51.114;13.666;2023-01-01T05:24:14;68582.31;;;12.60;100.00
36354;BME280;22383;51.114;13.666;2023-01-01T05:26:43;68588.19;;;12.68;100.00
36354;BME280;22383;51.114;13.666;2023-01-01T05:29:15;68594.28;;;12.71;100.00
36354;BME280;22383;51.114;13.666;2023-01-01T05:31:44;68600.31;;;12.74;100.00
36354;BME280;22383;51.114;13.666;2023-01-01T05:34:14;68599.38;;;12.68;100.00
36354;BME280;22383;51.114;13.666;2023-01-01T05:36:41;68594.84;;;12.72;100.00
36354;BME280;22383;51.114;13.666;2023-01-01T05:39:10;68598.25;;;12.75;100.00
36354;BME280;22383;51.114;13.666;2023-01-01T05:41:39;68602.78;;;12.79;100.00
36354;BME280;22383;51.114;13.666;2023-01-01T05:44:07;68604.88;;;12.78;100.00
36354;BME280;22383;51.114;13.666;2023-01-01T05:46:36;68607.69;;;12.81;100.00
36354;BME280;22383;51.114;13.666;2023-01-01T05:49:03;68587.81;;;12.70;100.00
36354;BME280;22383;51.114;13.666;2023-01-01T05:51:30;68595.00;;;12.74;100.00
36354;BME280;22383;51.114;13.666;2023-01-01T05:53:59;68590.47;;;12.70;100.00
36354;BME280;22383;51.114;13.666;2023-01-01T05:56:27;68608.25;;;12.81;100.00
36354;BME280;22383;51.114;13.666;2023-01-01T05:58:54;68611.13;;;12.84;100.00
36354;BME280;22383;51.114;13.666;2023-01-01T06:01:24;68610.72;;;12.86;100.00
36354;BME280;22383;51.114;13.666;2023-01-01T06:03:53;68611.50;;;12.89;100.00
36354;BME280;22383;51.114;13.666;2023-01-01T06:06:25;68613.56;;;12.89;100.00
36354;BME280;22383;51.114;13.666;2023-01-01T06:09:00;68608.84;;;12.89;100.00
36354;BME280;22383;51.114;13.666;2023-01-01T06:11:28;68608.47;;;12.84;100.00
36354;BME280;22383;51.114;13.666;2023-01-01T06:13:57;68613.56;;;12.89;100.00
36354;BME280;22383;51.114;13.666;2023-01-01T06:16:26;68619.44;;;12.96;100.00
36354;BME280;22383;51.114;13.666;2023-01-01T06:18:53;68624.75;;;12.96;100.00
36354;BME280;22383;51.114;13.666;2023-01-01T06:21:22;68634.97;;;13.05;100.00
36354;BME280;22383;51.114;13.666;2023-01-01T06:23:50;68620.75;;;13.00;100.00
36354;BME280;22383;51.114;13.666;2023-01-01T06:26:26;68623.25;;;12.97;100.00
36354;BME280;22383;51.114;13.666;2023-01-01T06:28:54;68617.56;;;12.92;100.00
36354;BME280;22383;51.114;13.666;2023-01-01T06:31:22;68623.25;;;12.97;100.00
36354;BME280;22383;51.114;13.666;2023-01-01T06:33:49;68627.78;;;13.01;100.00
36354;BME280;22383;51.114;13.666;2023-01-01T06:36:19;68629.88;;;13.01;100.00
36354;BME280;22383;51.114;13.666;2023-01-01T06:38:49;68626.25;;;13.02;100.00
36354;BME280;22383;51.114;13.666;2023-01-01T06:41:18;68630.59;;;13.04;100.00
36354;BME280;22383;51.114;13.666;2023-01-01T06:43:46;68629.09;;;13.05;100.00
36354;BME280;22383;51.114;13.666;2023-01-01T06:46:22;68645.75;;;13.15;100.00
36354;BME280;22383;51.114;13.666;2023-01-01T06:48:53;68633.25;;;13.11;100.00
36354;BME280;22383;51.114;13.666;2023-01-01T06:51:23;68641.00;;;13.16;100.00
36354;BME280;22383;51.114;13.666;2023-01-01T06:53:51;68630.97;;;13.09;100.00
36354;BME280;22383;51.114;13.666;2023-01-01T06:56:19;68629.28;;;13.00;100.00
36354;BME280;22383;51.114;13.666;2023-01-01T06:58:46;68623.97;;;13.00;100.00
36354;BME280;22383;51.114;13.666;2023-01-01T07:01:17;68640.66;;;13.11;100.00
36354;BME280;22383;51.114;13.666;2023-01-01T07:03:59;68634.22;;;13.10;100.00
36354;BME280;22383;51.114;13.666;2023-01-01T07:06:28;68628.91;;;13.02;100.00
36354;BME280;22383;51.114;13.666;2023-01-01T07:08:56;68623.41;;;13.00;100.00
36354;BME280;22383;51.114;13.666;2023-01-01T07:11:24;68635.91;;;13.11;100.00
36354;BME280;22383;51.114;13.666;2023-01-01T07:13:54;68630.22;;;13.06;100.00
36354;BME280;22383;51.114;13.666;2023-01-01T07:16:22;68631.75;;;13.05;100.00
36354;BME280;22383;51.114;13.666;2023-01-01T07:18:52;68630.03;;;13.03;100.00
36354;BME280;22383;51.114;13.666;2023-01-01T07:23:56;68636.88;;;13.10;100.00
36354;BME280;22383;51.114;13.666;2023-01-01T07:26:24;68630.78;;;13.07;100.00
36354;BME280;22383;51.114;13.666;2023-01-01T07:28:52;68646.69;;;13.21;100.00
36354;BME280;22383;51.114;13.666;2023-01-01T07:31:19;68643.66;;;13.16;100.00
36354;BME280;22383;51.114;13.666;2023-01-01T07:33:47;68642.16;;;13.17;100.00
36354;BME280;22383;51.114;13.666;2023-01-01T07:36:15;68649.19;;;13.18;100.00
36354;BME280;22383;51.114;13.666;2023-01-01T07:38:42;68653.53;;;13.27;100.00
36354;BME280;22383;51.114;13.666;2023-01-01T07:41:09;68657.88;;;13.29;100.00
36354;BME280;22383;51.114;13.666;2023-01-01T07:43:38;68665.66;;;13.33;100.00
36354;BME280;22383;51.114;13.666;2023-01-01T07:46:06;68662.63;;;13.35;100.00
36354;BME280;22383;51.114;13.666;2023-01-01T07:48:33;68659.22;;;13.32;100.00
36354;BME280;22383;51.114;13.666;2023-01-01T07:51:06;68660.75;;;13.31;100.00
36354;BME280;22383;51.114;13.666;2023-01-01T07:53:33;68646.69;;;13.21;100.00
36354;BME280;22383;51.114;13.666;2023-01-01T07:56:00;68645.94;;;13.18;100.00
36354;BME280;22383;51.114;13.666;2023-01-01T07:58:27;68646.13;;;13.20;100.00
36354;BME280;22383;51.114;13.666;2023-01-01T08:00:54;68658.44;;;13.29;100.00
36354;BME280;22383;51.114;13.666;2023-01-01T08:03:22;68664.72;;;13.35;100.00
36354;BME280;22383;51.114;13.666;2023-01-01T08:05:49;68685.75;;;13.54;100.00
36354;BME280;22383;51.114;13.666;2023-01-01T08:08:16;68689.53;;;13.55;100.00
36354;BME280;22383;51.114;13.666;2023-01-01T08:10:43;68690.09;;;13.63;100.00
36354;BME280;22383;51.114;13.666;2023-01-01T08:13:10;68696.53;;;13.64;100.00
36354;BME280;22383;51.114;13.666;2023-01-01T08:15:37;68697.28;;;13.67;100.00
36354;BME280;22383;51.114;13.666;2023-01-01T08:18:04;68710.00;;;13.73;100.00
36354;BME280;22383;51.114;13.666;2023-01-01T08:20:32;68723.63;;;13.86;100.00
36354;BME280;22383;51.114;13.666;2023-01-01T08:23:01;68717.94;;;13.80;100.00
36354;BME280;22383;51.114;13.666;2023-01-01T08:25:33;68719.81;;;13.85;100.00
36354;BME280;22383;51.114;13.666;2023-01-01T08:28:01;68725.13;;;13.92;100.00
36354;BME280;22383;51.114;13.666;2023-01-01T08:30:28;68727.78;;;13.92;100.00
36354;BME280;22383;51.114;13.666;2023-01-01T08:32:55;68734.41;;;13.95;100.00
36354;BME280;22383;51.114;13.666;2023-01-01T08:35:22;68738.75;;;14.04;100.00
36354;BME280;22383;51.114;13.666;2023-01-01T08:37:49;68764.16;;;14.25;100.00
36354;BME280;22383;51.114;13.666;2023-01-01T08:40:16;68780.84;;;14.42;100.00
36354;BME280;22383;51.114;13.666;2023-01-01T08:42:43;68778.19;;;14.42;100.00
36354;BME280;22383;51.114;13.666;2023-01-01T08:45:11;68784.25;;;14.45;100.00
36354;BME280;22383;51.114;13.666;2023-01-01T08:47:38;68772.31;;;14.34;100.00
36354;BME280;22383;51.114;13.666;2023-01-01T08:50:05;68780.28;;;14.42;100.00
36354;BME280;22383;51.114;13.666;2023-01-01T08:52:33;68782.00;;;14.43;100.00
36354;BME280;22383;51.114;13.666;2023-01-01T08:55:00;68778.19;;;14.42;100.00
36354;BME280;22383;51.114;13.666;2023-01-01T08:57:30;68778.56;;;14.40;100.00
36354;BME280;22383;51.114;13.666;2023-01-01T09:00:03;68771.94;;;14.36;100.00
36354;BME280;22383;51.114;13.666;2023-01-01T09:02:30;68778.97;;;14.38;100.00
36354;BME280;22383;51.114;13.666;2023-01-01T09:05:01;68762.44;;;14.30;100.00
36354;BME280;22383;51.114;13.666;2023-01-01T09:07:28;68750.63;;;14.36;100.00
36354;BME280;22383;51.114;13.666;2023-01-01T09:09:55;68768.34;;;14.31;100.00
36354;BME280;22383;51.114;13.666;2023-01-01T09:12:22;68768.34;;;14.31;100.00
36354;BME280;22383;51.114;13.666;2023-01-01T09:14:49;68763.78;;;14.27;100.00
36354;BME280;22383;51.114;13.666;2023-01-01T09:17:16;68756.56;;;14.23;100.00
36354;BME280;22383;51.114;13.666;2023-01-01T09:19:43;68764.38;;;14.27;100.00
36354;BME280;22383;51.114;13.666;2023-01-01T09:22:11;68757.53;;;14.21;100.00
36354;BME280;22383;51.114;13.666;2023-01-01T09:24:38;68764.72;;;14.25;100.00
36354;BME280;22383;51.114;13.666;2023-01-01T09:27:05;68772.31;;;14.34;100.00
36354;BME280;22383;51.114;13.666;2023-01-01T09:29:45;68772.31;;;14.34;100.00
36354;BME280;22383;51.114;13.666;2023-01-01T09:32:21;68778.97;;;14.38;100.00
36354;BME280;22383;51.114;13.666;2023-01-01T09:34:51;68789.19;;;14.47;100.00
36354;BME280;22383;51.114;13.666;2023-01-01T09:37:30;68800.38;;;14.55;100.00
36354;BME280;22383;51.114;13.666;2023-01-01T09:39:57;68805.88;;;14.65;100.00
36354;BME280;22383;51.114;13.666;2023-01-01T09:47:41;68811.00;;;14.69;100.00
36354;BME280;22383;51.114;13.666;2023-01-01T09:50:14;68821.81;;;14.79;100.00
36354;BME280;22383;51.114;13.666;2023-01-01T09:52:56;68830.91;;;14.87;100.00
36354;BME280;22383;51.114;13.666;2023-01-01T09:55:29;68848.53;;;15.03;100.00
36354;BME280;22383;51.114;13.666;2023-01-01T09:58:01;68839.81;;;14.93;100.00
36354;BME280;22383;51.114;13.666;2023-01-01T10:00:34;68858.22;;;15.12;100.00
36354;BME280;22383;51.114;13.666;2023-01-01T10:06:21;68863.72;;;15.15;100.00
36354;BME280;22383;51.114;13.666;2023-01-01T10:09:06;68852.72;;;15.02;100.00
36354;BME280;22383;51.114;13.666;2023-01-01T10:14:31;68886.47;;;15.35;100.00
36354;BME280;22383;51.114;13.666;2023-01-01T10:17:13;68880.22;;;15.29;100.00
36354;BME280;22383;51.114;13.666;2023-01-01T10:20:02;68881.38;;;15.30;100.00
36354;BME280;22383;51.114;13.666;2023-01-01T10:25:47;68866.94;;;15.22;100.00
36354;BME280;22383;51.114;13.666;2023-01-01T10:28:48;68873.78;;;15.21;100.00
36354;BME280;22383;51.114;13.666;2023-01-01T10:34:12;68860.13;;;15.09;100.00
36354;BME280;22383;51.114;13.666;2023-01-01T10:36:57;68849.69;;;15.04;100.00
36354;BME280;22383;51.114;13.666;2023-01-01T10:39:25;68856.91;;;15.08;100.00
36354;BME280;22383;51.114;13.666;2023-01-01T10:41:57;68865.06;;;15.18;100.00
36354;BME280;22383;51.114;13.666;2023-01-01T10:44:32;68873.38;;;15.23;100.00
36354;BME280;22383;51.114;13.666;2023-01-01T10:50:04;68903.91;;;15.56;100.00
36354;BME280;22383;51.114;13.666;2023-01-01T10:52:37;68913.41;;;15.62;100.00
36354;BME280;22383;51.114;13.666;2023-01-01T10:55:06;68920.22;;;15.68;100.00
36354;BME280;22383;51.114;13.666;2023-01-01T10:57:44;68920.22;;;15.68;99.88
36354;BME280;22383;51.114;13.666;2023-01-01T11:00:22;68923.84;;;15.66;99.81
36354;BME280;22383;51.114;13.666;2023-01-01T11:08:38;68913.63;;;15.57;99.56
36354;BME280;22383;51.114;13.666;2023-01-01T11:11:19;68906.97;;;15.54;100.00
36354;BME280;22383;51.114;13.666;2023-01-01T11:13:58;68928.22;;;15.75;100.00
36354;BME280;22383;51.114;13.666;2023-01-01T11:16:27;68916.06;;;15.62;99.62
36354;BME280;22383;51.114;13.666;2023-01-01T11:19:02;68928.22;;;15.75;99.64
36354;BME280;22383;51.114;13.666;2023-01-01T11:21:31;68917.38;;;15.65;98.83
36354;BME280;22383;51.114;13.666;2023-01-01T11:24:19;68906.56;;;15.56;98.76
36354;BME280;22383;51.114;13.666;2023-01-01T11:26:48;68897.47;;;15.47;100.00
36354;BME280;22383;51.114;13.666;2023-01-01T11:29:26;68895.41;;;15.41;100.00
36354;BME280;22383;51.114;13.666;2023-01-01T11:31:56;68893.88;;;15.42;100.00
36354;BME280;22383;51.114;13.666;2023-01-01T11:34:40;68903.38;;;15.48;100.00
36354;BME280;22383;51.114;13.666;2023-01-01T11:37:29;68909.41;;;15.58;100.00
36354;BME280;22383;51.114;13.666;2023-01-01T11:40:03;68893.47;;;15.44;99.59
36354;BME280;22383;51.114;13.666;2023-01-01T11:42:33;68906.56;;;15.56;98.58
36354;BME280;22383;51.114;13.666;2023-01-01T11:45:44;68906.00;;;15.55;97.76
36354;BME280;22383;51.114;13.666;2023-01-01T11:48:28;68908.28;;;15.57;99.04
36354;BME280;22383;51.114;13.666;2023-01-01T11:51:03;68912.66;;;15.59;98.36
36354;BME280;22383;51.114;13.666;2023-01-01T11:53:40;68919.47;;;15.65;98.47
36354;BME280;22383;51.114;13.666;2023-01-01T11:56:14;68929.38;;;15.76;97.41
36354;BME280;22383;51.114;13.666;2023-01-01T11:59:02;68930.88;;;15.75;97.53
36354;BME280;22383;51.114;13.666;2023-01-01T12:07:05;68941.88;;;15.87;94.52
36354;BME280;22383;51.114;13.666;2023-01-01T12:09:54;68932.03;;;15.76;94.92
36354;BME280;22383;51.114;13.666;2023-01-01T12:15:49;68932.75;;;15.79;95.81
36354;BME280;22383;51.114;13.666;2023-01-01T12:18:41;68936.59;;;15.80;93.92
36354;BME280;22383;51.114;13.666;2023-01-01T12:21:29;68917.97;;;15.66;95.32
36354;BME280;22383;51.114;13.666;2023-01-01T12:24:08;68918.72;;;15.62;94.74
36354;BME280;22383;51.114;13.666;2023-01-01T12:27:11;68919.09;;;15.67;95.25
36354;BME280;22383;51.114;13.666;2023-01-01T12:30:02;68910.94;;;15.57;95.24
36354;BME280;22383;51.114;13.666;2023-01-01T12:32:58;68915.69;;;15.64;95.85
36354;BME280;22383;51.114;13.666;2023-01-01T12:36:05;68908.69;;;15.55;95.98
36354;BME280;22383;51.114;13.666;2023-01-01T12:38:55;68890.66;;;15.41;95.24
36354;BME280;22383;51.114;13.666;2023-01-01T12:41:48;68886.66;;;15.38;95.68
36354;BME280;22383;51.114;13.666;2023-01-01T12:50:10;68901.09;;;15.46;97.29
36354;BME280;22383;51.114;13.666;2023-01-01T12:58:29;68887.59;;;15.43;95.68
36354;BME280;22383;51.114;13.666;2023-01-01T13:01:06;68895.59;;;15.43;98.12
36354;BME280;22383;51.114;13.666;2023-01-01T13:03:52;68890.47;;;15.39;96.52
36354;BME280;22383;51.114;13.666;2023-01-01T13:06:46;68885.16;;;15.31;97.59
36354;BME280;22383;51.114;13.666;2023-01-01T13:09:20;68877.00;;;15.29;98.91
36354;BME280;22383;51.114;13.666;2023-01-01T13:12:03;68882.31;;;15.29;100.00
36354;BME280;22383;51.114;13.666;2023-01-01T13:14:38;68880.38;;;15.32;99.96
36354;BME280;22383;51.114;13.666;2023-01-01T13:17:20;68880.97;;;15.32;98.53
36354;BME280;22383;51.114;13.666;2023-01-01T13:19:57;68876.63;;;15.24;100.00
36354;BME280;22383;51.114;13.666;2023-01-01T13:25:16;68859.34;;;15.13;100.00
36354;BME280;22383;51.114;13.666;2023-01-01T13:33:30;68838.31;;;14.94;100.00
36354;BME280;22383;51.114;13.666;2023-01-01T13:38:53;68856.72;;;15.06;100.00
36354;BME280;22383;51.114;13.666;2023-01-01T13:52:25;68842.84;;;14.98;100.00
36354;BME280;22383;51.114;13.666;2023-01-01T14:03:40;68828.28;;;14.80;100.00
36354;BME280;22383;51.114;13.666;2023-01-01T14:06:23;68830.16;;;14.84;100.00
36354;BME280;22383;51.114;13.666;2023-01-01T14:09:06;68809.88;;;14.68;100.00
36354;BME280;22383;51.114;13.666;2023-01-01T14:11:36;68801.91;;;14.61;100.00
36354;BME280;22383;51.114;13.666;2023-01-01T14:16:51;68786.72;;;14.50;100.00
36354;BME280;22383;51.114;13.666;2023-01-01T14:19:22;68738.69;;;14.26;100.00
36354;BME280;22383;51.114;13.666;2023-01-01T14:21:50;68773.28;;;14.33;100.00
36354;BME280;22383;51.114;13.666;2023-01-01T14:24:20;68765.31;;;14.26;100.00
36354;BME280;22383;51.114;13.666;2023-01-01T14:26:49;68760.94;;;14.24;100.00
36354;BME280;22383;51.114;13.666;2023-01-01T14:29:26;68759.63;;;14.21;100.00
36354;BME280;22383;51.114;13.666;2023-01-01T14:32:10;68747.09;;;14.09;100.00
36354;BME280;22383;51.114;13.666;2023-01-01T14:34:38;68726.28;;;13.93;100.00
36354;BME280;22383;51.114;13.666;2023-01-01T14:37:18;68725.91;;;13.88;100.00
36354;BME280;22383;51.114;13.666;2023-01-01T14:40:04;68729.09;;;13.95;100.00
36354;BME280;22383;51.114;13.666;2023-01-01T14:42:31;68728.38;;;13.92;100.00
36354;BME280;22383;51.114;13.666;2023-01-01T14:45:00;68736.13;;;13.97;100.00
36354;BME280;22383;51.114;13.666;2023-01-01T14:47:32;68709.03;;;13.75;100.00
36354;BME280;22383;51.114;13.666;2023-01-01T14:50:12;68692.34;;;13.65;100.00
36354;BME280;22383;51.114;13.666;2023-01-01T14:52:44;68711.88;;;13.77;100.00
36354;BME280;22383;51.114;13.666;2023-01-01T14:55:17;68718.13;;;13.83;100.00
36354;BME280;22383;51.114;13.666;2023-01-01T14:57:46;68700.50;;;13.67;100.00
36354;BME280;22383;51.114;13.666;2023-01-01T15:00:29;68708.47;;;13.74;100.00
36354;BME280;22383;51.114;13.666;2023-01-01T15:03:15;68707.34;;;13.73;100.00
36354;BME280;22383;51.114;13.666;2023-01-01T15:05:45;68697.47;;;13.69;100.00